sensor_id;sensor_type;location;lat;lon;timestamp;temperature;humidity
21207;DHT22;10761;48.532;8.026;2023-03-14T00:00:14;11.50;1.00
21207;DHT22;10761;48.532;8.026;2023-03-14T00:02:40;11.50;1.00
21207;DHT22;10761;48.532;8.026;2023-03-14T00:05:07;11.60;1.00
21207;DHT22;10761;48.532;8.026;2023-03-14T00:07:35;11.60;1.00
21207;DHT22;10761;48.532;8.026;2023-03-14T00:10:06;11.60;1.00
21207;DHT22;10761;48.532;8.026;2023-03-14T00:12:32;11.60;1.00
21207;DHT22;10761;48.532;8.026;2023-03-14T00:14:58;11.50;1.00
21207;DHT22;10761;48.532;8.026;2023-03-14T00:17:26;11.50;99.90
21207;DHT22;10761;48.532;8.026;2023-03-14T00:19:52;11.50;99.90
21207;DHT22;10761;48.532;8.026;2023-03-14T00:22:19;11.50;99.90
21207;DHT22;10761;48.532;8.026;2023-03-14T00:24:45;11.50;99.90
21207;DHT22;10761;48.532;8.026;2023-03-14T00:27:11;11.50;99.90
21207;DHT22;10761;48.532;8.026;2023-03-14T00:29:36;11.50;99.90
21207;DHT22;10761;48.532;8.026;2023-03-14T00:32:02;11.50;99.90
21207;DHT22;10761;48.532;8.026;2023-03-14T00:34:31;11.50;99.90
21207;DHT22;10761;48.532;8.026;2023-03-14T00:36:57;11.40;99.90
21207;DHT22;10761;48.532;8.026;2023-03-14T00:39:23;11.40;99.90
21207;DHT22;10761;48.532;8.026;2023-03-14T00:41:48;11.40;1.00
21207;DHT22;10761;48.532;8.026;2023-03-14T00:44:14;11.50;1.00
21207;DHT22;10761;48.532;8.026;2023-03-14T00:46:39;11.50;99.90
21207;DHT22;10761;48.532;8.026;2023-03-14T00:49:05;11.50;99.90
21207;DHT22;10761;48.532;8.026;2023-03-14T00:51:30;11.50;99.90
21207;DHT22;10761;48.532;8.026;2023-03-14T00:53:56;11.50;99.90
21207;DHT22;10761;48.532;8.026;2023-03-14T00:56:22;11.50;1.00
21207;DHT22;10761;48.532;8.026;2023-03-14T00:58:47;11.50;1.00
21207;DHT22;10761;48.532;8.026;2023-03-14T01:01:18;11.50;1.00
21207;DHT22;10761;48.532;8.026;2023-03-14T01:03:44;11.50;1.00
21207;DHT22;10761;48.532;8.026;2023-03-14T01:06:15;11.50;99.90
21207;DHT22;10761;48.532;8.026;2023-03-14T01:08:41;11.50;99.90
21207;DHT22;10761;48.532;8.026;2023-03-14T01:11:09;11.50;99.90
21207;DHT22;10761;48.532;8.026;2023-03-14T01:13:36;11.40;1.00
21207;DHT22;10761;48.532;8.026;2023-03-14T01:16:07;11.40;1.00
21207;DHT22;10761;48.532;8.026;2023-03-14T01:18:34;11.40;1.00
21207;DHT22;10761;48.532;8.026;2023-03-14T01:21:09;11.40;99.90
21207;DHT22;10761;48.532;8.026;2023-03-14T01:23:34;11.50;1.00
21207;DHT22;10761;48.532;8.026;2023-03-14T01:26:00;11.40;99.90
21207;DHT22;10761;48.532;8.026;2023-03-14T01:28:26;11.40;1.00
21207;DHT22;10761;48.532;8.026;2023-03-14T01:30:51;11.40;99.90
21207;DHT22;10761;48.532;8.026;2023-03-14T01:33:17;11.40;1.00
21207;DHT22;10761;48.532;8.026;2023-03-14T01:35:42;11.30;1.00
21207;DHT22;10761;48.532;8.026;2023-03-14T01:38:08;11.30;1.00
21207;DHT22;10761;48.532;8.026;2023-03-14T01:40:34;11.30;1.00
21207;DHT22;10761;48.532;8.026;2023-03-14T01:43:12;11.20;1.00
21207;DHT22;10761;48.532;8.026;2023-03-14T01:48:32;11.20;1.00
21207;DHT22;10761;48.532;8.026;2023-03-14T01:51:00;11.20;1.00
21207;DHT22;10761;48.532;8.026;2023-03-14T01:53:28;11.20;1.00
21207;DHT22;10761;48.532;8.026;2023-03-14T01:55:55;11.20;1.00
21207;DHT22;10761;48.532;8.026;2023-03-14T01:58:25;11.10;1.00
21207;DHT22;10761;48.532;8.026;2023-03-14T02:00:53;11.10;1.00
21207;DHT22;10761;48.532;8.026;2023-03-14T02:03:21;11.10;99.90
21207;DHT22;10761;48.532;8.026;2023-03-14T02:05:49;11.10;99.90
21207;DHT22;10761;48.532;8.026;2023-03-14T02:08:18;11.10;88.60
21207;DHT22;10761;48.532;8.026;2023-03-14T02:10:47;11.00;99.90
21207;DHT22;10761;48.532;8.026;2023-03-14T02:13:14;11.00;1.00
21207;DHT22;10761;48.532;8.026;2023-03-14T02:15:40;11.10;1.00
21207;DHT22;10761;48.532;8.026;2023-03-14T02:18:07;11.10;1.00
21207;DHT22;10761;48.532;8.026;2023-03-14T02:23:07;11.10;1.00
21207;DHT22;10761;48.532;8.026;2023-03-14T02:28:08;11.10;1.00
21207;DHT22;10761;48.532;8.026;2023-03-14T02:30:34;11.20;1.00
21207;DHT22;10761;48.532;8.026;2023-03-14T02:33:07;11.10;1.00
21207;DHT22;10761;48.532;8.026;2023-03-14T02:35:48;11.10;1.00
21207;DHT22;10761;48.532;8.026;2023-03-14T02:38:35;11.10;99.90
21207;DHT22;10761;48.532;8.026;2023-03-14T02:41:03;11.10;31.80
21207;DHT22;10761;48.532;8.026;2023-03-14T02:43:28;11.10;1.00
21207;DHT22;10761;48.532;8.026;2023-03-14T02:45:54;11.10;1.00
21207;DHT22;10761;48.532;8.026;2023-03-14T02:48:29;11.10;1.00
21207;DHT22;10761;48.532;8.026;2023-03-14T02:50:57;11.10;99.90
21207;DHT22;10761;48.532;8.026;2023-03-14T02:53:29;11.10;99.90
21207;DHT22;10761;48.532;8.026;2023-03-14T02:55:59;11.10;99.90
21207;DHT22;10761;48.532;8.026;2023-03-14T02:58:26;11.10;42.40
21207;DHT22;10761;48.532;8.026;2023-03-14T03:00:52;11.10;1.00
21207;DHT22;10761;48.532;8.026;2023-03-14T03:03:18;11.10;1.00
21207;DHT22;10761;48.532;8.026;2023-03-14T03:05:51;11.10;1.00
21207;DHT22;10761;48.532;8.026;2023-03-14T03:08:21;11.10;1.00
21207;DHT22;10761;48.532;8.026;2023-03-14T03:10:48;11.10;1.00
21207;DHT22;10761;48.532;8.026;2023-03-14T03:13:14;11.10;1.00
21207;DHT22;10761;48.532;8.026;2023-03-14T03:15:39;11.10;1.00
21207;DHT22;10761;48.532;8.026;2023-03-14T03:18:06;11.10;1.00
21207;DHT22;10761;48.532;8.026;2023-03-14T03:20:32;11.00;1.00
21207;DHT22;10761;48.532;8.026;2023-03-14T03:22:58;11.00;1.00
21207;DHT22;10761;48.532;8.026;2023-03-14T03:25:24;11.00;1.00
21207;DHT22;10761;48.532;8.026;2023-03-14T03:27:50;11.00;1.00
21207;DHT22;10761;48.532;8.026;2023-03-14T03:30:16;11.00;1.00
21207;DHT22;10761;48.532;8.026;2023-03-14T03:32:41;11.00;99.90
21207;DHT22;10761;48.532;8.026;2023-03-14T03:35:07;11.00;1.00
21207;DHT22;10761;48.532;8.026;2023-03-14T03:37:33;11.00;99.90
21207;DHT22;10761;48.532;8.026;2023-03-14T03:40:00;11.00;99.90
21207;DHT22;10761;48.532;8.026;2023-03-14T03:42:29;11.10;82.80
21207;DHT22;10761;48.532;8.026;2023-03-14T03:44:55;11.10;4.90
21207;DHT22;10761;48.532;8.026;2023-03-14T03:47:20;11.20;1.00
21207;DHT22;10761;48.532;8.026;2023-03-14T03:49:46;11.10;1.00
21207;DHT22;10761;48.532;8.026;2023-03-14T03:52:11;11.10;1.00
21207;DHT22;10761;48.532;8.026;2023-03-14T03:54:37;11.10;1.00
21207;DHT22;10761;48.532;8.026;2023-03-14T03:57:03;11.10;1.00
21207;DHT22;10761;48.532;8.026;2023-03-14T03:59:28;11.10;1.00
21207;DHT22;10761;48.532;8.026;2023-03-14T04:01:54;11.10;1.00
21207;DHT22;10761;48.532;8.026;2023-03-14T04:04:19;11.10;1.00
21207;DHT22;10761;48.532;8.026;2023-03-14T04:06:45;11.10;1.00
21207;DHT22;10761;48.532;8.026;2023-03-14T04:09:11;11.10;1.00
21207;DHT22;10761;48.532;8.026;2023-03-14T04:11:37;11.00;1.00
21207;DHT22;10761;48.532;8.026;2023-03-14T04:14:04;11.00;1.00
21207;DHT22;10761;48.532;8.026;2023-03-14T04:16:30;11.00;1.00
21207;DHT22;10761;48.532;8.026;2023-03-14T04:18:59;11.00;1.00
21207;DHT22;10761;48.532;8.026;2023-03-14T04:21:25;11.00;1.00
21207;DHT22;10761;48.532;8.026;2023-03-14T04:23:50;11.00;1.00
21207;DHT22;10761;48.532;8.026;2023-03-14T04:26:16;11.00;1.00
21207;DHT22;10761;48.532;8.026;2023-03-14T04:28:41;11.00;1.00
21207;DHT22;10761;48.532;8.026;2023-03-14T04:31:12;11.00;1.00
21207;DHT22;10761;48.532;8.026;2023-03-14T04:33:38;11.00;1.00
21207;DHT22;10761;48.532;8.026;2023-03-14T04:36:05;11.00;1.00
21207;DHT22;10761;48.532;8.026;2023-03-14T04:38:31;11.00;1.00
21207;DHT22;10761;48.532;8.026;2023-03-14T04:40:57;11.00;1.00
21207;DHT22;10761;48.532;8.026;2023-03-14T04:43:23;10.90;1.00
21207;DHT22;10761;48.532;8.026;2023-03-14T04:45:48;10.90;1.00
21207;DHT22;10761;48.532;8.026;2023-03-14T04:48:14;10.90;1.00
21207;DHT22;10761;48.532;8.026;2023-03-14T04:50:39;10.90;1.00
21207;DHT22;10761;48.532;8.026;2023-03-14T04:53:06;11.00;1.00
21207;DHT22;10761;48.532;8.026;2023-03-14T04:55:32;11.00;1.00
21207;DHT22;10761;48.532;8.026;2023-03-14T04:57:58;11.00;1.00
21207;DHT22;10761;48.532;8.026;2023-03-14T05:00:24;11.00;1.00
21207;DHT22;10761;48.532;8.026;2023-03-14T05:02:50;11.00;1.00
21207;DHT22;10761;48.532;8.026;2023-03-14T05:05:16;11.00;1.00
21207;DHT22;10761;48.532;8.026;2023-03-14T05:07:41;10.90;1.00
21207;DHT22;10761;48.532;8.026;2023-03-14T05:10:07;10.90;1.00
21207;DHT22;10761;48.532;8.026;2023-03-14T05:12:33;11.00;1.00
21207;DHT22;10761;48.532;8.026;2023-03-14T05:14:59;10.90;1.00
21207;DHT22;10761;48.532;8.026;2023-03-14T05:17:24;10.90;1.00
21207;DHT22;10761;48.532;8.026;2023-03-14T05:19:50;11.00;1.00
21207;DHT22;10761;48.532;8.026;2023-03-14T05:22:15;10.90;1.00
21207;DHT22;10761;48.532;8.026;2023-03-14T05:24:41;11.00;1.00
21207;DHT22;10761;48.532;8.026;2023-03-14T05:27:07;10.90;1.00
21207;DHT22;10761;48.532;8.026;2023-03-14T05:29:32;11.00;1.00
21207;DHT22;10761;48.532;8.026;2023-03-14T05:31:58;10.90;1.00
21207;DHT22;10761;48.532;8.026;2023-03-14T05:34:23;11.00;99.90
21207;DHT22;10761;48.532;8.026;2023-03-14T05:36:49;11.00;99.90
21207;DHT22;10761;48.532;8.026;2023-03-14T05:39:14;11.00;99.90
21207;DHT22;10761;48.532;8.026;2023-03-14T05:41:40;11.00;99.90
21207;DHT22;10761;48.532;8.026;2023-03-14T05:44:06;11.10;99.90
21207;DHT22;10761;48.532;8.026;2023-03-14T05:46:31;11.10;99.90
21207;DHT22;10761;48.532;8.026;2023-03-14T05:49:00;11.10;99.90
21207;DHT22;10761;48.532;8.026;2023-03-14T05:51:26;11.10;99.90
21207;DHT22;10761;48.532;8.026;2023-03-14T05:53:53;11.00;99.90
21207;DHT22;10761;48.532;8.026;2023-03-14T05:56:18;11.00;99.90
21207;DHT22;10761;48.532;8.026;2023-03-14T05:58:44;11.00;99.90
21207;DHT22;10761;48.532;8.026;2023-03-14T06:01:10;11.00;99.90
21207;DHT22;10761;48.532;8.026;2023-03-14T06:03:35;10.90;99.90
21207;DHT22;10761;48.532;8.026;2023-03-14T06:06:01;10.90;99.90
21207;DHT22;10761;48.532;8.026;2023-03-14T06:08:27;10.90;1.00
21207;DHT22;10761;48.532;8.026;2023-03-14T06:10:53;10.90;1.00
21207;DHT22;10761;48.532;8.026;2023-03-14T06:13:19;10.90;1.00
21207;DHT22;10761;48.532;8.026;2023-03-14T06:15:45;10.90;1.00
21207;DHT22;10761;48.532;8.026;2023-03-14T06:18:10;10.90;1.00
21207;DHT22;10761;48.532;8.026;2023-03-14T06:20:37;10.90;1.00
21207;DHT22;10761;48.532;8.026;2023-03-14T06:23:05;10.90;1.00
21207;DHT22;10761;48.532;8.026;2023-03-14T06:25:32;10.90;1.00
21207;DHT22;10761;48.532;8.026;2023-03-14T06:27:57;10.90;99.90
21207;DHT22;10761;48.532;8.026;2023-03-14T06:30:23;10.90;99.90
21207;DHT22;10761;48.532;8.026;2023-03-14T06:32:48;11.00;99.90
21207;DHT22;10761;48.532;8.026;2023-03-14T06:35:14;11.00;99.90
21207;DHT22;10761;48.532;8.026;2023-03-14T06:37:40;11.10;99.90
21207;DHT22;10761;48.532;8.026;2023-03-14T06:40:07;11.10;99.90
21207;DHT22;10761;48.532;8.026;2023-03-14T06:42:33;11.10;99.90
21207;DHT22;10761;48.532;8.026;2023-03-14T06:44:58;11.10;99.90
21207;DHT22;10761;48.532;8.026;2023-03-14T06:47:24;11.20;99.90
21207;DHT22;10761;48.532;8.026;2023-03-14T06:49:49;11.20;77.20
21207;DHT22;10761;48.532;8.026;2023-03-14T06:52:15;11.30;19.10
21207;DHT22;10761;48.532;8.026;2023-03-14T06:54:40;11.30;1.00
21207;DHT22;10761;48.532;8.026;2023-03-14T06:57:06;11.30;1.00
21207;DHT22;10761;48.532;8.026;2023-03-14T06:59:32;11.40;1.00
21207;DHT22;10761;48.532;8.026;2023-03-14T07:01:57;11.40;1.00
21207;DHT22;10761;48.532;8.026;2023-03-14T07:04:23;11.40;1.00
21207;DHT22;10761;48.532;8.026;2023-03-14T07:06:48;11.50;1.00
21207;DHT22;10761;48.532;8.026;2023-03-14T07:09:14;11.60;1.00
21207;DHT22;10761;48.532;8.026;2023-03-14T07:11:42;11.60;1.00
21207;DHT22;10761;48.532;8.026;2023-03-14T07:14:08;11.60;1.00
21207;DHT22;10761;48.532;8.026;2023-03-14T07:16:34;11.60;1.00
21207;DHT22;10761;48.532;8.026;2023-03-14T07:19:00;11.60;1.00
21207;DHT22;10761;48.532;8.026;2023-03-14T07:21:26;11.60;1.00
21207;DHT22;10761;48.532;8.026;2023-03-14T07:23:52;11.50;1.00
21207;DHT22;10761;48.532;8.026;2023-03-14T07:26:18;11.50;1.00
21207;DHT22;10761;48.532;8.026;2023-03-14T07:28:43;11.60;1.00
21207;DHT22;10761;48.532;8.026;2023-03-14T07:31:09;11.60;1.00
21207;DHT22;10761;48.532;8.026;2023-03-14T07:33:35;11.70;1.00
21207;DHT22;10761;48.532;8.026;2023-03-14T07:36:01;11.70;1.00
21207;DHT22;10761;48.532;8.026;2023-03-14T07:38:27;11.70;1.00
21207;DHT22;10761;48.532;8.026;2023-03-14T07:41:00;11.80;1.00
21207;DHT22;10761;48.532;8.026;2023-03-14T07:43:25;11.80;1.00
21207;DHT22;10761;48.532;8.026;2023-03-14T07:45:51;11.80;1.00
21207;DHT22;10761;48.532;8.026;2023-03-14T07:48:17;11.90;1.00
21207;DHT22;10761;48.532;8.026;2023-03-14T07:50:43;12.20;1.00
21207;DHT22;10761;48.532;8.026;2023-03-14T07:53:08;12.30;1.00
21207;DHT22;10761;48.532;8.026;2023-03-14T07:55:34;12.20;1.00
21207;DHT22;10761;48.532;8.026;2023-03-14T07:57:59;12.30;1.00
21207;DHT22;10761;48.532;8.026;2023-03-14T08:00:25;12.60;1.00
21207;DHT22;10761;48.532;8.026;2023-03-14T08:02:51;12.60;99.90
21207;DHT22;10761;48.532;8.026;2023-03-14T08:05:16;12.40;99.90
21207;DHT22;10761;48.532;8.026;2023-03-14T08:07:42;12.20;99.90
21207;DHT22;10761;48.532;8.026;2023-03-14T08:10:08;12.10;99.90
21207;DHT22;10761;48.532;8.026;2023-03-14T08:12:34;12.00;99.90
21207;DHT22;10761;48.532;8.026;2023-03-14T08:14:59;12.00;1.00
21207;DHT22;10761;48.532;8.026;2023-03-14T08:17:25;12.10;1.00
21207;DHT22;10761;48.532;8.026;2023-03-14T08:19:51;12.20;1.00
21207;DHT22;10761;48.532;8.026;2023-03-14T08:22:16;12.20;1.00
21207;DHT22;10761;48.532;8.026;2023-03-14T08:24:42;12.10;1.00
21207;DHT22;10761;48.532;8.026;2023-03-14T08:27:08;12.00;1.00
21207;DHT22;10761;48.532;8.026;2023-03-14T08:29:33;12.00;1.00
21207;DHT22;10761;48.532;8.026;2023-03-14T08:31:59;12.10;1.00
21207;DHT22;10761;48.532;8.026;2023-03-14T08:34:25;12.00;1.00
21207;DHT22;10761;48.532;8.026;2023-03-14T08:36:50;11.90;1.00
21207;DHT22;10761;48.532;8.026;2023-03-14T08:39:16;11.80;1.00
21207;DHT22;10761;48.532;8.026;2023-03-14T08:41:41;11.80;1.00
21207;DHT22;10761;48.532;8.026;2023-03-14T08:44:09;11.70;1.00
21207;DHT22;10761;48.532;8.026;2023-03-14T08:46:36;11.80;1.00
21207;DHT22;10761;48.532;8.026;2023-03-14T08:49:02;11.80;1.00
21207;DHT22;10761;48.532;8.026;2023-03-14T08:51:28;11.90;1.00
21207;DHT22;10761;48.532;8.026;2023-03-14T08:53:54;11.90;1.00
21207;DHT22;10761;48.532;8.026;2023-03-14T08:56:20;11.90;1.00
21207;DHT22;10761;48.532;8.026;2023-03-14T08:58:46;11.90;1.00
21207;DHT22;10761;48.532;8.026;2023-03-14T09:01:12;11.80;1.00
21207;DHT22;10761;48.532;8.026;2023-03-14T09:03:37;11.80;1.00
21207;DHT22;10761;48.532;8.026;2023-03-14T09:06:05;11.80;1.00
21207;DHT22;10761;48.532;8.026;2023-03-14T09:08:31;11.80;1.00
21207;DHT22;10761;48.532;8.026;2023-03-14T09:10:57;12.00;1.00
21207;DHT22;10761;48.532;8.026;2023-03-14T09:13:23;12.10;1.00
21207;DHT22;10761;48.532;8.026;2023-03-14T09:15:55;12.20;1.00
21207;DHT22;10761;48.532;8.026;2023-03-14T09:18:21;12.20;1.00
21207;DHT22;10761;48.532;8.026;2023-03-14T09:20:48;12.00;1.00
21207;DHT22;10761;48.532;8.026;2023-03-14T09:23:14;11.80;1.00
21207;DHT22;10761;48.532;8.026;2023-03-14T09:25:39;11.80;1.00
21207;DHT22;10761;48.532;8.026;2023-03-14T09:28:05;11.80;1.00
21207;DHT22;10761;48.532;8.026;2023-03-14T09:30:31;11.90;1.00
21207;DHT22;10761;48.532;8.026;2023-03-14T09:32:56;11.80;1.00
21207;DHT22;10761;48.532;8.026;2023-03-14T09:35:23;11.70;1.00
21207;DHT22;10761;48.532;8.026;2023-03-14T09:37:48;11.60;1.00
21207;DHT22;10761;48.532;8.026;2023-03-14T09:40:18;11.60;1.00
21207;DHT22;10761;48.532;8.026;2023-03-14T09:42:50;11.60;1.00
21207;DHT22;10761;48.532;8.026;2023-03-14T09:45:37;11.60;1.00
21207;DHT22;10761;48.532;8.026;2023-03-14T09:48:05;11.60;1.00
21207;DHT22;10761;48.532;8.026;2023-03-14T09:50:43;11.50;1.00
21207;DHT22;10761;48.532;8.026;2023-03-14T09:53:18;11.40;99.90
21207;DHT22;10761;48.532;8.026;2023-03-14T09:55:47;11.30;1.00
21207;DHT22;10761;48.532;8.026;2023-03-14T09:58:20;11.10;99.90
21207;DHT22;10761;48.532;8.026;2023-03-14T10:00:46;11.00;1.00
21207;DHT22;10761;48.532;8.026;2023-03-14T10:05:39;10.80;99.90
21207;DHT22;10761;48.532;8.026;2023-03-14T10:08:05;10.70;1.00
21207;DHT22;10761;48.532;8.026;2023-03-14T10:10:32;10.60;99.90
21207;DHT22;10761;48.532;8.026;2023-03-14T10:13:24;10.50;1.00
21207;DHT22;10761;48.532;8.026;2023-03-14T10:15:55;10.50;99.90
21207;DHT22;10761;48.532;8.026;2023-03-14T10:18:22;10.40;1.00
21207;DHT22;10761;48.532;8.026;2023-03-14T10:20:51;10.50;1.00
21207;DHT22;10761;48.532;8.026;2023-03-14T10:23:28;10.40;1.00
21207;DHT22;10761;48.532;8.026;2023-03-14T10:28:31;10.30;99.90
21207;DHT22;10761;48.532;8.026;2023-03-14T10:30:59;10.30;1.00
21207;DHT22;10761;48.532;8.026;2023-03-14T10:33:26;10.30;99.90
21207;DHT22;10761;48.532;8.026;2023-03-14T10:38:28;10.30;1.00
21207;DHT22;10761;48.532;8.026;2023-03-14T10:40:55;10.40;99.90
21207;DHT22;10761;48.532;8.026;2023-03-14T10:43:35;10.50;1.00
21207;DHT22;10761;48.532;8.026;2023-03-14T10:46:12;10.50;1.00
21207;DHT22;10761;48.532;8.026;2023-03-14T10:48:39;10.60;1.00
21207;DHT22;10761;48.532;8.026;2023-03-14T10:56:15;10.60;53.90
21207;DHT22;10761;48.532;8.026;2023-03-14T10:58:47;10.50;99.90
21207;DHT22;10761;48.532;8.026;2023-03-14T11:01:27;10.30;1.00
21207;DHT22;10761;48.532;8.026;2023-03-14T11:04:14;10.20;1.00
21207;DHT22;10761;48.532;8.026;2023-03-14T11:06:50;10.00;1.00
21207;DHT22;10761;48.532;8.026;2023-03-14T11:12:33;9.80;1.00
21207;DHT22;10761;48.532;8.026;2023-03-14T11:26:17;9.90;1.00
21207;DHT22;10761;48.532;8.026;2023-03-14T11:28:49;10.00;1.00
21207;DHT22;10761;48.532;8.026;2023-03-14T11:31:29;10.00;99.90
21207;DHT22;10761;48.532;8.026;2023-03-14T11:36:50;10.00;55.10
21207;DHT22;10761;48.532;8.026;2023-03-14T11:39:18;10.00;1.00
21207;DHT22;10761;48.532;8.026;2023-03-14T11:41:51;10.00;99.90
21207;DHT22;10761;48.532;8.026;2023-03-14T11:44:37;9.90;99.90
21207;DHT22;10761;48.532;8.026;2023-03-14T11:47:30;9.90;99.90
21207;DHT22;10761;48.532;8.026;2023-03-14T11:55:38;10.30;50.20
21207;DHT22;10761;48.532;8.026;2023-03-14T12:00:43;10.70;1.00
21207;DHT22;10761;48.532;8.026;2023-03-14T12:03:57;10.80;1.00
21207;DHT22;10761;48.532;8.026;2023-03-14T12:08:55;10.60;1.00
21207;DHT22;10761;48.532;8.026;2023-03-14T12:16:47;10.30;1.00
21207;DHT22;10761;48.532;8.026;2023-03-14T12:19:27;10.20;1.00
21207;DHT22;10761;48.532;8.026;2023-03-14T12:22:13;10.20;1.00
21207;DHT22;10761;48.532;8.026;2023-03-14T12:24:47;10.20;1.00
21207;DHT22;10761;48.532;8.026;2023-03-14T12:27:41;10.20;1.00
21207;DHT22;10761;48.532;8.026;2023-03-14T12:30:32;10.20;1.00
21207;DHT22;10761;48.532;8.026;2023-03-14T12:33:14;10.10;1.00
21207;DHT22;10761;48.532;8.026;2023-03-14T12:41:17;9.90;99.90
21207;DHT22;10761;48.532;8.026;2023-03-14T12:43:46;9.80;99.90
21207;DHT22;10761;48.532;8.026;2023-03-14T12:49:04;9.70;99.90
21207;DHT22;10761;48.532;8.026;2023-03-14T12:51:40;9.60;99.90
21207;DHT22;10761;48.532;8.026;2023-03-14T12:57:05;9.60;99.90
21207;DHT22;10761;48.532;8.026;2023-03-14T12:59:36;9.50;99.90
21207;DHT22;10761;48.532;8.026;2023-03-14T13:10:23;9.50;99.90
21207;DHT22;10761;48.532;8.026;2023-03-14T13:12:56;9.60;99.90
21207;DHT22;10761;48.532;8.026;2023-03-14T13:15:35;9.70;99.90
21207;DHT22;10761;48.532;8.026;2023-03-14T13:18:13;9.70;99.90
21207;DHT22;10761;48.532;8.026;2023-03-14T13:20:52;9.70;99.90
21207;DHT22;10761;48.532;8.026;2023-03-14T13:23:24;9.60;99.90
21207;DHT22;10761;48.532;8.026;2023-03-14T13:25:50;9.60;99.90
21207;DHT22;10761;48.532;8.026;2023-03-14T13:28:16;9.60;99.90
21207;DHT22;10761;48.532;8.026;2023-03-14T13:30:47;9.60;99.90
21207;DHT22;10761;48.532;8.026;2023-03-14T13:33:21;9.80;99.90
21207;DHT22;10761;48.532;8.026;2023-03-14T13:35:59;9.90;99.90
21207;DHT22;10761;48.532;8.026;2023-03-14T13:38:27;9.90;99.90
21207;DHT22;10761;48.532;8.026;2023-03-14T13:40:55;10.00;99.90
21207;DHT22;10761;48.532;8.026;2023-03-14T13:43:33;10.00;99.90
21207;DHT22;10761;48.532;8.026;2023-03-14T13:46:16;10.00;99.90
21207;DHT22;10761;48.532;8.026;2023-03-14T13:48:52;10.10;99.90
21207;DHT22;10761;48.532;8.026;2023-03-14T13:51:19;10.10;99.90
21207;DHT22;10761;48.532;8.026;2023-03-14T13:53:51;10.30;99.90
21207;DHT22;10761;48.532;8.026;2023-03-14T13:56:19;10.30;99.90
21207;DHT22;10761;48.532;8.026;2023-03-14T13:58:45;10.20;99.90
21207;DHT22;10761;48.532;8.026;2023-03-14T14:01:18;10.10;99.90
21207;DHT22;10761;48.532;8.026;2023-03-14T14:03:47;10.00;99.90
21207;DHT22;10761;48.532;8.026;2023-03-14T14:06:34;9.80;99.90
21207;DHT22;10761;48.532;8.026;2023-03-14T14:09:13;9.80;99.90
21207;DHT22;10761;48.532;8.026;2023-03-14T14:16:46;9.80;99.90
21207;DHT22;10761;48.532;8.026;2023-03-14T14:19:13;9.80;99.90
21207;DHT22;10761;48.532;8.026;2023-03-14T14:21:40;9.80;99.90
21207;DHT22;10761;48.532;8.026;2023-03-14T14:24:10;9.80;99.90
21207;DHT22;10761;48.532;8.026;2023-03-14T14:26:40;9.70;99.90
21207;DHT22;10761;48.532;8.026;2023-03-14T14:29:16;9.70;99.90
21207;DHT22;10761;48.532;8.026;2023-03-14T14:31:44;9.80;99.90
21207;DHT22;10761;48.532;8.026;2023-03-14T14:34:19;9.80;99.90
21207;DHT22;10761;48.532;8.026;2023-03-14T14:36:45;9.80;99.90
21207;DHT22;10761;48.532;8.026;2023-03-14T14:39:23;9.80;99.90
21207;DHT22;10761;48.532;8.026;2023-03-14T14:41:50;9.80;99.90
21207;DHT22;10761;48.532;8.026;2023-03-14T14:44:21;9.70;99.90
21207;DHT22;10761;48.532;8.026;2023-03-14T14:46:49;9.70;99.90
21207;DHT22;10761;48.532;8.026;2023-03-14T14:49:18;9.60;99.90
21207;DHT22;10761;48.532;8.026;2023-03-14T14:51:48;9.50;99.90
21207;DHT22;10761;48.532;8.026;2023-03-14T14:54:19;9.60;99.90
21207;DHT22;10761;48.532;8.026;2023-03-14T14:57:02;9.60;99.90
21207;DHT22;10761;48.532;8.026;2023-03-14T14:59:28;10.20;99.90
21207;DHT22;10761;48.532;8.026;2023-03-14T15:01:59;10.30;99.90
21207;DHT22;10761;48.532;8.026;2023-03-14T15:04:26;9.90;99.90
21207;DHT22;10761;48.532;8.026;2023-03-14T15:06:52;9.80;99.90
21207;DHT22;10761;48.532;8.026;2023-03-14T15:09:19;9.80;99.90
21207;DHT22;10761;48.532;8.026;2023-03-14T15:11:45;9.60;99.90
21207;DHT22;10761;48.532;8.026;2023-03-14T15:14:11;9.50;99.90
21207;DHT22;10761;48.532;8.026;2023-03-14T15:16:38;9.40;99.90
21207;DHT22;10761;48.532;8.026;2023-03-14T15:19:11;9.40;99.90
21207;DHT22;10761;48.532;8.026;2023-03-14T15:21:37;9.40;99.90
21207;DHT22;10761;48.532;8.026;2023-03-14T15:24:04;9.30;99.90
21207;DHT22;10761;48.532;8.026;2023-03-14T15:26:30;9.30;99.90
21207;DHT22;10761;48.532;8.026;2023-03-14T15:28:56;9.30;99.90
21207;DHT22;10761;48.532;8.026;2023-03-14T15:31:22;9.30;99.90
21207;DHT22;10761;48.532;8.026;2023-03-14T15:33:48;9.20;99.90
21207;DHT22;10761;48.532;8.026;2023-03-14T15:36:26;9.20;99.90
21207;DHT22;10761;48.532;8.026;2023-03-14T15:38:53;9.20;99.90
21207;DHT22;10761;48.532;8.026;2023-03-14T15:41:19;9.20;99.90
21207;DHT22;10761;48.532;8.026;2023-03-14T15:43:45;9.20;99.90
21207;DHT22;10761;48.532;8.026;2023-03-14T15:46:12;9.10;99.90
21207;DHT22;10761;48.532;8.026;2023-03-14T15:48:38;9.10;99.90
21207;DHT22;10761;48.532;8.026;2023-03-14T15:51:04;9.00;99.90
21207;DHT22;10761;48.532;8.026;2023-03-14T15:53:29;8.90;99.90
21207;DHT22;10761;48.532;8.026;2023-03-14T15:55:55;8.80;1.00
21207;DHT22;10761;48.532;8.026;2023-03-14T15:58:21;8.60;1.00
21207;DHT22;10761;48.532;8.026;2023-03-14T16:00:46;8.50;1.00
21207;DHT22;10761;48.532;8.026;2023-03-14T16:03:12;8.40;1.00
21207;DHT22;10761;48.532;8.026;2023-03-14T16:05:39;8.30;99.90
21207;DHT22;10761;48.532;8.026;2023-03-14T16:08:05;8.20;1.00
21207;DHT22;10761;48.532;8.026;2023-03-14T16:10:31;8.20;1.00
21207;DHT22;10761;48.532;8.026;2023-03-14T16:12:57;8.10;99.90
21207;DHT22;10761;48.532;8.026;2023-03-14T16:15:23;7.90;6.80
21207;DHT22;10761;48.532;8.026;2023-03-14T16:17:54;7.70;1.00
21207;DHT22;10761;48.532;8.026;2023-03-14T16:20:21;7.60;99.90
21207;DHT22;10761;48.532;8.026;2023-03-14T16:22:47;7.50;1.00
21207;DHT22;10761;48.532;8.026;2023-03-14T16:25:13;7.40;1.00
21207;DHT22;10761;48.532;8.026;2023-03-14T16:27:38;7.30;1.00
21207;DHT22;10761;48.532;8.026;2023-03-14T16:30:05;7.20;99.90
21207;DHT22;10761;48.532;8.026;2023-03-14T16:32:31;7.10;99.90
21207;DHT22;10761;48.532;8.026;2023-03-14T16:34:56;7.10;1.00
21207;DHT22;10761;48.532;8.026;2023-03-14T16:37:23;7.10;99.90
21207;DHT22;10761;48.532;8.026;2023-03-14T16:39:49;7.10;1.00
21207;DHT22;10761;48.532;8.026;2023-03-14T16:42:15;7.20;99.90
21207;DHT22;10761;48.532;8.026;2023-03-14T16:44:41;7.20;99.90
21207;DHT22;10761;48.532;8.026;2023-03-14T16:47:07;7.80;1.00
21207;DHT22;10761;48.532;8.026;2023-03-14T16:49:33;8.70;1.00
21207;DHT22;10761;48.532;8.026;2023-03-14T16:51:58;8.90;1.00
21207;DHT22;10761;48.532;8.026;2023-03-14T16:54:24;9.20;1.00
21207;DHT22;10761;48.532;8.026;2023-03-14T16:56:49;9.20;1.00
21207;DHT22;10761;48.532;8.026;2023-03-14T16:59:15;8.60;1.00
21207;DHT22;10761;48.532;8.026;2023-03-14T17:01:41;8.20;1.00
21207;DHT22;10761;48.532;8.026;2023-03-14T17:04:08;7.80;1.00
21207;DHT22;10761;48.532;8.026;2023-03-14T17:06:34;7.60;1.00